createdAt,value
2018-09-26T00:00:16.467Z,1026.39
2018-09-26T00:01:16.411Z,1026.40
2018-09-26T00:02:16.441Z,1026.35
2018-09-26T00:03:16.415Z,1026.32
2018-09-26T00:04:16.376Z,1026.37
2018-09-26T00:05:16.481Z,1026.34
2018-09-26T00:06:16.421Z,1026.34
2018-09-26T00:07:16.407Z,1026.24
2018-09-26T00:08:16.390Z,1026.26
2018-09-26T00:09:16.488Z,1026.23
2018-09-26T00:10:16.381Z,1026.24
2018-09-26T00:11:16.354Z,1026.27
2018-09-26T00:12:16.468Z,1026.27
2018-09-26T00:13:16.389Z,1026.26
2018-09-26T00:14:16.401Z,1026.27
2018-09-26T00:15:16.461Z,1026.28
2018-09-26T00:16:16.430Z,1026.30
2018-09-26T00:17:16.462Z,1026.31
2018-09-26T00:18:16.390Z,1026.26
2018-09-26T00:19:16.462Z,1026.30
2018-09-26T00:20:16.395Z,1026.28
2018-09-26T00:21:16.393Z,1026.25
2018-09-26T00:22:16.471Z,1026.22
2018-09-26T00:23:16.472Z,1026.19
2018-09-26T00:24:16.463Z,1026.22
2018-09-26T00:25:16.435Z,1026.23
2018-09-26T00:26:16.423Z,1026.19
2018-09-26T00:27:16.458Z,1026.17
2018-09-26T00:28:16.459Z,1026.16
2018-09-26T00:29:16.470Z,1026.12
2018-09-26T00:30:16.435Z,1026.08
2018-09-26T00:31:16.347Z,1026.05
2018-09-26T00:32:16.491Z,1026.02
2018-09-26T00:33:16.408Z,1026.00
2018-09-26T00:34:16.429Z,1025.99
2018-09-26T00:35:16.419Z,1025.98
2018-09-26T00:36:16.539Z,1025.96
2018-09-26T00:37:16.487Z,1025.96
2018-09-26T00:38:16.428Z,1025.94
2018-09-26T00:39:16.390Z,1025.94
2018-09-26T00:40:16.436Z,1025.98
2018-09-26T00:41:16.526Z,1025.97
2018-09-26T00:42:16.495Z,1026.06
2018-09-26T00:43:16.441Z,1026.07
2018-09-26T00:44:16.450Z,1026.07
2018-09-26T00:45:16.536Z,1025.99
2018-09-26T00:46:16.485Z,1026.02
2018-09-26T00:47:16.488Z,1026.00
2018-09-26T00:48:16.490Z,1026.02
2018-09-26T00:49:16.495Z,1025.97
2018-09-26T00:50:16.417Z,1025.99
2018-09-26T00:51:16.605Z,1025.97
2018-09-26T00:52:16.430Z,1025.97
2018-09-26T00:53:16.498Z,1025.95
2018-09-26T00:54:16.486Z,1025.97
2018-09-26T00:55:16.498Z,1025.90
2018-09-26T00:56:16.410Z,1025.86
2018-09-26T00:57:16.486Z,1025.88
2018-09-26T00:58:16.409Z,1025.83
2018-09-26T00:59:16.407Z,1025.83
2018-09-26T01:00:16.487Z,1025.82
2018-09-26T01:01:16.413Z,1025.81
2018-09-26T01:02:16.483Z,1025.82
2018-09-26T01:03:16.414Z,1025.79
2018-09-26T01:04:16.407Z,1025.79
2018-09-26T01:05:16.483Z,1025.77
2018-09-26T01:06:16.465Z,1025.80
2018-09-26T01:07:16.394Z,1025.74
2018-09-26T01:08:16.498Z,1025.76
2018-09-26T01:09:16.511Z,1025.73
2018-09-26T01:10:16.417Z,1025.74
2018-09-26T01:11:16.450Z,1025.73
2018-09-26T01:12:16.457Z,1025.75
2018-09-26T01:13:16.441Z,1025.70
2018-09-26T01:14:16.497Z,1025.77
2018-09-26T01:15:16.472Z,1025.79
2018-09-26T01:16:16.536Z,1025.75
2018-09-26T01:17:16.450Z,1025.75
2018-09-26T01:18:16.496Z,1025.77
2018-09-26T01:19:16.506Z,1025.77
2018-09-26T01:20:16.483Z,1025.78
2018-09-26T01:21:16.571Z,1025.75
2018-09-26T01:22:16.471Z,1025.70
2018-09-26T01:23:16.428Z,1025.72
2018-09-26T01:24:16.474Z,1025.63
2018-09-26T01:25:16.513Z,1025.64
2018-09-26T01:26:16.532Z,1025.64
2018-09-26T01:27:16.487Z,1025.66
2018-09-26T01:28:16.461Z,1025.64
2018-09-26T01:29:16.535Z,1025.64
2018-09-26T01:30:16.537Z,1025.68
2018-09-26T01:31:16.485Z,1025.66
2018-09-26T01:32:16.506Z,1025.62
2018-09-26T01:33:16.533Z,1025.57
2018-09-26T01:34:16.474Z,1025.62
2018-09-26T01:35:16.414Z,1025.58
2018-09-26T01:36:16.514Z,1025.58
2018-09-26T01:37:16.451Z,1025.58
2018-09-26T01:38:16.407Z,1025.58
2018-09-26T01:39:16.530Z,1025.52
2018-09-26T01:40:16.444Z,1025.53
2018-09-26T01:41:16.453Z,1025.46
2018-09-26T01:42:16.528Z,1025.49
2018-09-26T01:43:16.542Z,1025.41
2018-09-26T01:44:16.464Z,1025.38
2018-09-26T01:45:16.441Z,1025.36
2018-09-26T01:46:16.518Z,1025.28
2018-09-26T01:47:16.440Z,1025.26
2018-09-26T01:48:16.576Z,1025.26
2018-09-26T01:49:16.522Z,1025.30
2018-09-26T01:50:16.557Z,1025.33
2018-09-26T01:51:16.499Z,1025.36
2018-09-26T01:52:16.593Z,1025.35
2018-09-26T01:53:16.489Z,1025.39
2018-09-26T01:54:16.559Z,1025.40
2018-09-26T01:55:16.502Z,1025.45
2018-09-26T01:56:16.538Z,1025.44
2018-09-26T01:57:16.461Z,1025.43
2018-09-26T01:58:16.542Z,1025.35
2018-09-26T01:59:16.475Z,1025.32
2018-09-26T02:00:16.544Z,1025.36
2018-09-26T02:01:16.534Z,1025.33
2018-09-26T02:02:16.563Z,1025.39
2018-09-26T02:03:16.494Z,1025.43
2018-09-26T02:04:16.545Z,1025.39
2018-09-26T02:05:16.537Z,1025.45
2018-09-26T02:06:16.450Z,1025.43
2018-09-26T02:07:16.569Z,1025.42
2018-09-26T02:08:16.475Z,1025.37
2018-09-26T02:09:16.475Z,1025.37
2018-09-26T02:10:16.564Z,1025.30
2018-09-26T02:11:16.567Z,1025.32
2018-09-26T02:12:16.513Z,1025.24
2018-09-26T02:13:16.570Z,1025.27
2018-09-26T02:14:16.561Z,1025.27
2018-09-26T02:15:16.513Z,1025.27
2018-09-26T02:16:16.556Z,1025.29
2018-09-26T02:17:28.868Z,1025.30
2018-09-26T02:18:16.560Z,1025.31
2018-09-26T02:19:16.538Z,1025.29
2018-09-26T02:20:16.543Z,1025.31
2018-09-26T02:21:16.440Z,1025.31
2018-09-26T02:22:16.513Z,1025.35
2018-09-26T02:23:16.504Z,1025.31
2018-09-26T02:24:16.473Z,1025.29
2018-09-26T02:25:16.518Z,1025.33
2018-09-26T02:26:16.418Z,1025.31
2018-09-26T02:27:16.507Z,1025.32
2018-09-26T02:28:16.510Z,1025.31
2018-09-26T02:29:16.409Z,1025.32
2018-09-26T02:30:16.471Z,1025.29
2018-09-26T02:31:16.541Z,1025.30
2018-09-26T02:32:16.529Z,1025.32
2018-09-26T02:33:16.542Z,1025.33
2018-09-26T02:34:16.517Z,1025.37
2018-09-26T02:35:16.586Z,1025.38
2018-09-26T02:36:16.557Z,1025.40
2018-09-26T02:37:16.445Z,1025.36
2018-09-26T02:38:16.558Z,1025.39
2018-09-26T02:39:16.570Z,1025.34
2018-09-26T02:40:16.549Z,1025.34
2018-09-26T02:41:16.504Z,1025.32
2018-09-26T02:42:16.505Z,1025.28
2018-09-26T02:43:16.587Z,1025.28
2018-09-26T02:44:16.571Z,1025.24
2018-09-26T02:45:16.444Z,1025.25
2018-09-26T02:46:16.521Z,1025.21
2018-09-26T02:47:16.534Z,1025.22
2018-09-26T02:48:16.534Z,1025.20
2018-09-26T02:49:16.573Z,1025.20
2018-09-26T02:50:16.572Z,1025.23
2018-09-26T02:51:16.590Z,1025.22
2018-09-26T02:52:16.534Z,1025.24
2018-09-26T02:53:16.607Z,1025.27
2018-09-26T02:54:16.528Z,1025.31
2018-09-26T02:55:16.543Z,1025.28
2018-09-26T02:56:16.525Z,1025.30
2018-09-26T02:57:16.566Z,1025.32
2018-09-26T02:58:16.587Z,1025.32
2018-09-26T02:59:16.473Z,1025.36
2018-09-26T03:00:16.496Z,1025.37
2018-09-26T03:01:16.546Z,1025.34
2018-09-26T03:02:16.533Z,1025.35
2018-09-26T03:03:16.558Z,1025.34
2018-09-26T03:04:16.563Z,1025.27
2018-09-26T03:05:16.493Z,1025.31
2018-09-26T03:06:16.518Z,1025.27
2018-09-26T03:07:16.476Z,1025.26
2018-09-26T03:08:16.578Z,1025.23
2018-09-26T03:09:16.549Z,1025.24
2018-09-26T03:10:16.597Z,1025.24
2018-09-26T03:11:16.540Z,1025.28
2018-09-26T03:12:16.556Z,1025.28
2018-09-26T03:13:16.501Z,1025.31
2018-09-26T03:14:16.558Z,1025.33
2018-09-26T03:15:16.602Z,1025.30
2018-09-26T03:16:16.502Z,1025.28
2018-09-26T03:17:16.559Z,1025.21
2018-09-26T03:18:16.584Z,1025.26
2018-09-26T03:19:16.564Z,1025.24
2018-09-26T03:20:16.626Z,1025.29
2018-09-26T03:21:16.560Z,1025.26
2018-09-26T03:22:16.657Z,1025.26
2018-09-26T03:23:16.596Z,1025.22
2018-09-26T03:24:16.570Z,1025.20
2018-09-26T03:25:16.588Z,1025.22
2018-09-26T03:26:16.516Z,1025.27
2018-09-26T03:27:16.583Z,1025.32
2018-09-26T03:28:16.522Z,1025.34
2018-09-26T03:29:16.589Z,1025.31
2018-09-26T03:30:16.519Z,1025.27
2018-09-26T03:31:16.594Z,1025.25
2018-09-26T03:32:16.590Z,1025.22
2018-09-26T03:33:16.524Z,1025.18
2018-09-26T03:34:16.589Z,1025.21
2018-09-26T03:35:16.612Z,1025.25
2018-09-26T03:36:16.601Z,1025.21
2018-09-26T03:37:16.599Z,1025.18
2018-09-26T03:38:16.617Z,1025.20
2018-09-26T03:39:16.570Z,1025.17
2018-09-26T03:40:16.607Z,1025.16
2018-09-26T03:41:16.607Z,1025.18
2018-09-26T03:42:16.529Z,1025.16
2018-09-26T03:43:16.607Z,1025.18
2018-09-26T03:44:16.533Z,1025.20
2018-09-26T03:45:16.535Z,1025.12
2018-09-26T03:46:16.599Z,1025.08
2018-09-26T03:47:16.613Z,1025.03
2018-09-26T03:48:16.625Z,1024.99
2018-09-26T03:49:16.523Z,1024.94
2018-09-26T03:50:16.535Z,1024.97
2018-09-26T03:51:16.618Z,1024.98
2018-09-26T03:52:16.552Z,1024.99
2018-09-26T03:53:16.647Z,1025.02
2018-09-26T03:54:16.607Z,1025.04
2018-09-26T03:55:16.647Z,1025.04
2018-09-26T03:56:16.548Z,1025.00
2018-09-26T03:57:16.609Z,1025.06
2018-09-26T03:58:16.619Z,1025.00
2018-09-26T03:59:16.544Z,1025.01
2018-09-26T04:00:16.617Z,1025.05
2018-09-26T04:01:16.623Z,1025.02
2018-09-26T04:02:16.572Z,1024.98
2018-09-26T04:03:16.565Z,1024.93
2018-09-26T04:04:16.555Z,1024.87
2018-09-26T04:05:16.626Z,1024.84
2018-09-26T04:06:16.642Z,1024.78
2018-09-26T04:07:16.582Z,1024.81
2018-09-26T04:08:16.643Z,1024.74
2018-09-26T04:09:16.589Z,1024.69
2018-09-26T04:10:16.619Z,1024.65
2018-09-26T04:11:16.539Z,1024.62
2018-09-26T04:12:16.622Z,1024.56
2018-09-26T04:13:16.716Z,1024.54
2018-09-26T04:14:16.594Z,1024.54
2018-09-26T04:15:16.651Z,1024.53
2018-09-26T04:16:16.562Z,1024.48
2018-09-26T04:17:16.627Z,1024.46
2018-09-26T04:18:16.563Z,1024.45
2018-09-26T04:19:16.566Z,1024.41
2018-09-26T04:20:16.568Z,1024.43
2018-09-26T04:21:16.560Z,1024.43
2018-09-26T04:22:16.634Z,1024.43
2018-09-26T04:23:16.632Z,1024.44
2018-09-26T04:24:16.579Z,1024.45
2018-09-26T04:25:16.567Z,1024.45
2018-09-26T04:26:16.617Z,1024.51
2018-09-26T04:27:16.748Z,1024.49
2018-09-26T04:28:16.633Z,1024.51
2018-09-26T04:29:16.596Z,1024.47
2018-09-26T04:30:16.836Z,1024.46
2018-09-26T04:31:16.669Z,1024.44
2018-09-26T04:32:16.652Z,1024.44
2018-09-26T04:33:16.987Z,1024.48
2018-09-26T04:34:16.637Z,1024.51
2018-09-26T04:35:16.676Z,1024.49
2018-09-26T04:36:16.592Z,1024.49
2018-09-26T04:37:16.522Z,1024.49
2018-09-26T04:38:16.598Z,1024.49
2018-09-26T04:39:16.577Z,1024.48
2018-09-26T04:40:16.652Z,1024.49
2018-09-26T04:41:16.646Z,1024.51
2018-09-26T04:42:16.669Z,1024.54
2018-09-26T04:43:16.710Z,1024.55
2018-09-26T04:44:16.658Z,1024.53
2018-09-26T04:45:16.652Z,1024.57
2018-09-26T04:46:16.650Z,1024.58
2018-09-26T04:47:16.667Z,1024.61
2018-09-26T04:48:16.587Z,1024.64
2018-09-26T04:49:16.616Z,1024.59
2018-09-26T04:50:16.620Z,1024.59
2018-09-26T04:51:16.568Z,1024.55
2018-09-26T04:52:16.609Z,1024.58
2018-09-26T04:53:16.609Z,1024.63
2018-09-26T04:54:16.594Z,1024.58
2018-09-26T04:55:16.672Z,1024.59
2018-09-26T04:56:16.585Z,1024.61
2018-09-26T04:57:16.586Z,1024.59
2018-09-26T04:58:16.575Z,1024.58
2018-09-26T04:59:16.725Z,1024.55
2018-09-26T05:00:16.656Z,1024.47
2018-09-26T05:01:16.590Z,1024.48
2018-09-26T05:02:16.590Z,1024.45
2018-09-26T05:03:16.662Z,1024.49
2018-09-26T05:04:16.664Z,1024.52
2018-09-26T05:05:16.603Z,1024.50
2018-09-26T05:06:16.602Z,1024.51
2018-09-26T05:07:16.682Z,1024.48
2018-09-26T05:08:16.796Z,1024.49
2018-09-26T05:09:16.628Z,1024.45
2018-09-26T05:10:16.644Z,1024.43
2018-09-26T05:11:16.700Z,1024.46
2018-09-26T05:12:16.642Z,1024.43
2018-09-26T05:13:16.566Z,1024.44
2018-09-26T05:14:16.704Z,1024.42
2018-09-26T05:15:16.633Z,1024.48
2018-09-26T05:16:16.547Z,1024.45
2018-09-26T05:17:16.624Z,1024.45
2018-09-26T05:18:16.673Z,1024.46
2018-09-26T05:19:16.680Z,1024.47
2018-09-26T05:20:16.605Z,1024.52
2018-09-26T05:21:16.601Z,1024.52
2018-09-26T05:22:16.607Z,1024.57
2018-09-26T05:23:16.774Z,1024.59
2018-09-26T05:24:16.611Z,1024.58
2018-09-26T05:25:16.616Z,1024.51
2018-09-26T05:26:16.617Z,1024.55
2018-09-26T05:27:16.613Z,1024.55
2018-09-26T05:28:16.675Z,1024.52
2018-09-26T05:29:16.610Z,1024.56
2018-09-26T05:30:16.631Z,1024.52
2018-09-26T05:31:16.679Z,1024.59
2018-09-26T05:32:16.693Z,1024.56
2018-09-26T05:33:16.638Z,1024.60
2018-09-26T05:34:16.614Z,1024.64
2018-09-26T05:35:16.619Z,1024.57
2018-09-26T05:36:16.580Z,1024.55
2018-09-26T05:37:16.652Z,1024.52
2018-09-26T05:38:16.682Z,1024.52
2018-09-26T05:39:16.704Z,1024.47
2018-09-26T05:40:16.647Z,1024.47
2018-09-26T05:41:16.584Z,1024.45
2018-09-26T05:42:16.719Z,1024.50
2018-09-26T05:43:16.765Z,1024.44
2018-09-26T05:44:16.695Z,1024.37
2018-09-26T05:45:16.707Z,1024.35
2018-09-26T05:46:16.721Z,1024.36
2018-09-26T05:47:16.669Z,1024.36
2018-09-26T05:48:16.590Z,1024.46
2018-09-26T05:49:16.590Z,1024.47
2018-09-26T05:50:16.785Z,1024.46
2018-09-26T05:51:16.658Z,1024.47
2018-09-26T05:52:16.661Z,1024.48
2018-09-26T05:53:16.760Z,1024.48
2018-09-26T05:54:16.662Z,1024.55
2018-09-26T05:55:16.711Z,1024.50
2018-09-26T05:56:16.699Z,1024.51
2018-09-26T05:57:16.701Z,1024.47
2018-09-26T05:58:16.699Z,1024.49
2018-09-26T05:59:16.656Z,1024.43
2018-09-26T06:00:16.745Z,1024.46
2018-09-26T06:01:16.735Z,1024.43
2018-09-26T06:02:16.699Z,1024.39
2018-09-26T06:03:16.715Z,1024.35
2018-09-26T06:04:16.531Z,1024.34
2018-09-26T06:05:16.686Z,1024.34
2018-09-26T06:06:16.706Z,1024.34
2018-09-26T06:07:16.684Z,1024.31
2018-09-26T06:08:16.659Z,1024.29
2018-09-26T06:09:16.655Z,1024.27
2018-09-26T06:10:16.626Z,1024.28
2018-09-26T06:11:16.721Z,1024.27
2018-09-26T06:12:16.687Z,1024.33
2018-09-26T06:13:16.735Z,1024.30
2018-09-26T06:14:16.667Z,1024.29
2018-09-26T06:15:16.717Z,1024.27
2018-09-26T06:16:16.647Z,1024.30
2018-09-26T06:17:16.654Z,1024.32
2018-09-26T06:18:16.645Z,1024.34
2018-09-26T06:19:16.721Z,1024.33
2018-09-26T06:20:16.710Z,1024.31
2018-09-26T06:21:16.643Z,1024.29
2018-09-26T06:22:16.710Z,1024.29
2018-09-26T06:23:16.714Z,1024.31
2018-09-26T06:24:16.713Z,1024.35
2018-09-26T06:25:16.714Z,1024.31
2018-09-26T06:26:16.728Z,1024.28
2018-09-26T06:27:16.729Z,1024.25
2018-09-26T06:28:16.716Z,1024.27
2018-09-26T06:29:16.714Z,1024.25
2018-09-26T06:30:16.720Z,1024.24
2018-09-26T06:31:16.721Z,1024.26
2018-09-26T06:32:16.678Z,1024.22
2018-09-26T06:33:16.659Z,1024.20
2018-09-26T06:34:16.701Z,1024.19
2018-09-26T06:35:16.740Z,1024.14
2018-09-26T06:36:16.749Z,1024.16
2018-09-26T06:37:16.686Z,1024.16
2018-09-26T06:38:16.617Z,1024.10
2018-09-26T06:39:16.721Z,1024.15
2018-09-26T06:40:16.648Z,1024.19
2018-09-26T06:41:16.643Z,1024.22
2018-09-26T06:42:16.729Z,1024.23
2018-09-26T06:43:16.716Z,1024.28
2018-09-26T06:44:16.632Z,1024.33
2018-09-26T06:45:16.640Z,1024.27
2018-09-26T06:46:16.726Z,1024.28
2018-09-26T06:47:16.664Z,1024.26
2018-09-26T06:48:16.675Z,1024.24
2018-09-26T06:49:16.668Z,1024.18
2018-09-26T06:50:16.624Z,1024.19
2018-09-26T06:51:16.693Z,1024.17
2018-09-26T06:52:16.734Z,1024.17
2018-09-26T06:53:16.616Z,1024.18
2018-09-26T06:54:16.735Z,1024.13
2018-09-26T06:55:16.683Z,1024.15
2018-09-26T06:56:16.739Z,1024.14
2018-09-26T06:57:16.772Z,1024.04
2018-09-26T06:58:16.702Z,1024.05
2018-09-26T06:59:16.698Z,1024.04
2018-09-26T07:00:16.828Z,1024.10
2018-09-26T07:01:16.774Z,1024.08
2018-09-26T07:02:16.703Z,1024.10
2018-09-26T07:03:16.679Z,1024.08
2018-09-26T07:04:16.680Z,1024.11
2018-09-26T07:05:16.712Z,1024.10
2018-09-26T07:06:16.767Z,1024.11
2018-09-26T07:07:16.763Z,1024.08
2018-09-26T07:08:16.716Z,1024.09
2018-09-26T07:09:16.770Z,1024.09
2018-09-26T07:10:16.649Z,1024.10
2018-09-26T07:11:16.723Z,1024.05
2018-09-26T07:12:16.853Z,1024.08
2018-09-26T07:13:16.750Z,1024.06
2018-09-26T07:14:16.772Z,1024.07
2018-09-26T07:15:16.746Z,1024.11
2018-09-26T07:16:16.785Z,1024.12
2018-09-26T07:17:16.770Z,1024.08
2018-09-26T07:18:16.676Z,1024.08
2018-09-26T07:19:16.727Z,1024.12
2018-09-26T07:20:16.691Z,1024.11
2018-09-26T07:21:16.741Z,1024.06
2018-09-26T07:22:16.686Z,1024.07
2018-09-26T07:23:16.650Z,1024.08
2018-09-26T07:24:16.693Z,1024.10
2018-09-26T07:25:16.674Z,1024.09
2018-09-26T07:26:16.693Z,1024.10
2018-09-26T07:27:16.749Z,1024.14
2018-09-26T07:28:16.752Z,1024.10
2018-09-26T07:29:16.749Z,1024.10
2018-09-26T07:30:16.785Z,1024.09
2018-09-26T07:31:16.757Z,1024.07
2018-09-26T07:32:16.860Z,1024.05
2018-09-26T07:33:16.778Z,1024.04
2018-09-26T07:34:16.681Z,1024.07
2018-09-26T07:35:16.761Z,1024.10
2018-09-26T07:36:16.726Z,1024.07
2018-09-26T07:37:16.705Z,1024.02
2018-09-26T07:38:16.761Z,1024.05
2018-09-26T07:39:16.723Z,1023.98
2018-09-26T07:40:16.767Z,1024.03
2018-09-26T07:41:16.671Z,1024.05
2018-09-26T07:42:16.768Z,1024.06
2018-09-26T07:43:16.674Z,1024.06
2018-09-26T07:44:16.772Z,1024.13
2018-09-26T07:45:16.771Z,1024.05
2018-09-26T07:46:16.726Z,1024.04
2018-09-26T07:47:16.785Z,1024.05
2018-09-26T07:48:16.773Z,1024.07
2018-09-26T07:49:16.678Z,1024.08
2018-09-26T07:50:16.728Z,1024.08
2018-09-26T07:51:16.736Z,1024.09
2018-09-26T07:52:16.815Z,1024.11
2018-09-26T07:53:16.760Z,1024.06
2018-09-26T07:54:16.780Z,1024.00
2018-09-26T07:55:16.743Z,1023.98
2018-09-26T07:56:16.806Z,1023.94
2018-09-26T07:57:16.811Z,1023.91
2018-09-26T07:58:16.680Z,1023.94
2018-09-26T07:59:16.816Z,1023.91
2018-09-26T08:00:16.705Z,1023.90
2018-09-26T08:01:16.823Z,1023.91
2018-09-26T08:02:16.780Z,1023.95
2018-09-26T08:03:16.783Z,1023.98
2018-09-26T08:04:16.825Z,1023.92
2018-09-26T08:05:16.756Z,1023.93
2018-09-26T08:06:16.745Z,1023.92
2018-09-26T08:07:16.713Z,1023.91
2018-09-26T08:08:16.756Z,1023.98
2018-09-26T08:09:16.710Z,1024.01
2018-09-26T08:10:16.815Z,1024.04
2018-09-26T08:11:16.883Z,1024.03
2018-09-26T08:12:16.741Z,1024.02
2018-09-26T08:13:16.789Z,1024.04
2018-09-26T08:14:16.772Z,1024.01
2018-09-26T08:15:16.750Z,1023.99
2018-09-26T08:16:16.713Z,1023.97
2018-09-26T08:17:16.792Z,1023.99
2018-09-26T08:18:16.892Z,1023.97
2018-09-26T08:19:16.816Z,1023.97
2018-09-26T08:20:16.775Z,1024.01
2018-09-26T08:21:16.716Z,1024.09
2018-09-26T08:22:16.792Z,1024.07
2018-09-26T08:23:16.828Z,1024.06
2018-09-26T08:24:16.806Z,1024.05
2018-09-26T08:25:16.758Z,1024.06
2018-09-26T08:26:16.798Z,1024.07
2018-09-26T08:27:16.818Z,1024.08
2018-09-26T08:28:16.818Z,1024.12
2018-09-26T08:29:16.752Z,1024.03
2018-09-26T08:30:16.717Z,1024.07
2018-09-26T08:31:16.840Z,1024.01
2018-09-26T08:32:16.803Z,1024.05
2018-09-26T08:33:16.817Z,1024.02
2018-09-26T08:34:16.803Z,1024.07
2018-09-26T08:35:16.761Z,1024.07
2018-09-26T08:36:16.726Z,1024.10
2018-09-26T08:37:16.778Z,1024.06
2018-09-26T08:38:16.821Z,1024.02
2018-09-26T08:39:16.746Z,1023.96
2018-09-26T08:40:16.810Z,1023.95
2018-09-26T08:41:16.744Z,1023.90
2018-09-26T08:42:16.812Z,1023.96
2018-09-26T08:43:16.828Z,1023.98
2018-09-26T08:44:16.747Z,1023.93
2018-09-26T08:45:16.812Z,1023.93
2018-09-26T08:46:16.744Z,1024.01
2018-09-26T08:47:16.834Z,1023.94
2018-09-26T08:48:16.818Z,1023.94
2018-09-26T08:49:16.823Z,1024.01
2018-09-26T08:50:16.820Z,1024.01
2018-09-26T08:51:16.818Z,1024.00
2018-09-26T08:52:16.748Z,1023.99
2018-09-26T08:53:16.933Z,1023.94
2018-09-26T08:54:16.750Z,1023.90
2018-09-26T08:55:16.817Z,1023.86
2018-09-26T08:56:16.840Z,1023.91
2018-09-26T08:57:16.725Z,1023.84
2018-09-26T08:58:16.825Z,1023.82
2018-09-26T08:59:16.820Z,1023.81
2018-09-26T09:00:16.780Z,1023.82
2018-09-26T09:01:16.773Z,1023.85
2018-09-26T09:02:16.745Z,1023.80
2018-09-26T09:03:16.849Z,1023.75
2018-09-26T09:04:16.742Z,1023.75
2018-09-26T09:05:16.854Z,1023.78
2018-09-26T09:06:16.755Z,1023.74
2018-09-26T09:07:16.809Z,1023.78
2018-09-26T09:08:16.856Z,1023.71
2018-09-26T09:09:16.835Z,1023.74
2018-09-26T09:10:16.796Z,1023.73
2018-09-26T09:11:16.856Z,1023.70
2018-09-26T09:12:16.868Z,1023.66
2018-09-26T09:13:16.859Z,1023.67
2018-09-26T09:14:16.921Z,1023.67
2018-09-26T09:15:16.814Z,1023.69
2018-09-26T09:16:16.780Z,1023.71
2018-09-26T09:17:16.732Z,1023.79
2018-09-26T09:18:16.849Z,1023.76
2018-09-26T09:19:16.800Z,1023.75
2018-09-26T09:20:16.871Z,1023.75
2018-09-26T09:21:16.756Z,1023.70
2018-09-26T09:22:16.797Z,1023.67
2018-09-26T09:23:16.868Z,1023.70
2018-09-26T09:24:16.850Z,1023.69
2018-09-26T09:25:16.810Z,1023.74
2018-09-26T09:26:16.929Z,1023.71
2018-09-26T09:27:16.863Z,1023.71
2018-09-26T09:28:16.819Z,1023.72
2018-09-26T09:29:16.787Z,1023.74
2018-09-26T09:30:16.820Z,1023.71
2018-09-26T09:31:16.854Z,1023.75
2018-09-26T09:32:16.921Z,1023.70
2018-09-26T09:33:16.868Z,1023.69
2018-09-26T09:34:16.813Z,1023.60
2018-09-26T09:35:16.884Z,1023.67
2018-09-26T09:36:16.873Z,1023.67
2018-09-26T09:37:16.767Z,1023.63
2018-09-26T09:38:16.846Z,1023.68
2018-09-26T09:39:16.862Z,1023.66
2018-09-26T09:40:16.781Z,1023.63
2018-09-26T09:41:16.847Z,1023.60
2018-09-26T09:42:16.809Z,1023.50
2018-09-26T09:43:16.841Z,1023.55
2018-09-26T09:44:16.893Z,1023.50
2018-09-26T09:45:16.798Z,1023.49
2018-09-26T09:46:16.854Z,1023.48
2018-09-26T09:47:16.895Z,1023.52
2018-09-26T09:48:16.756Z,1023.47
2018-09-26T09:49:16.853Z,1023.42
2018-09-26T09:50:16.843Z,1023.48
2018-09-26T09:51:16.922Z,1023.45
2018-09-26T09:52:16.842Z,1023.39
2018-09-26T09:53:17.049Z,1023.39
2018-09-26T09:54:16.830Z,1023.38
2018-09-26T09:55:16.868Z,1023.33
2018-09-26T09:56:16.918Z,1023.39
2018-09-26T09:57:16.870Z,1023.35
2018-09-26T09:58:16.861Z,1023.35
2018-09-26T09:59:16.800Z,1023.30
2018-09-26T10:00:16.866Z,1023.28
2018-09-26T10:01:16.803Z,1023.26
2018-09-26T10:02:17.015Z,1023.24
2018-09-26T10:03:16.807Z,1023.24
2018-09-26T10:04:16.812Z,1023.22
2018-09-26T10:05:16.803Z,1023.23
2018-09-26T10:06:16.807Z,1023.23
2018-09-26T10:07:16.914Z,1023.23
2018-09-26T10:08:16.799Z,1023.24
2018-09-26T10:09:16.869Z,1023.20
2018-09-26T10:10:16.882Z,1023.18
2018-09-26T10:11:16.844Z,1023.25
2018-09-26T10:12:16.849Z,1023.24
2018-09-26T10:13:16.803Z,1023.27
2018-09-26T10:14:16.887Z,1023.36
2018-09-26T10:15:16.820Z,1023.27
2018-09-26T10:16:16.814Z,1023.23
2018-09-26T10:17:16.939Z,1023.20
2018-09-26T10:18:16.858Z,1023.21
2018-09-26T10:19:16.844Z,1023.26
2018-09-26T10:20:16.877Z,1023.21
2018-09-26T10:21:16.919Z,1023.27
2018-09-26T10:22:16.916Z,1023.27
2018-09-26T10:23:16.781Z,1023.26
2018-09-26T10:24:16.924Z,1023.25
2018-09-26T10:25:16.903Z,1023.23
2018-09-26T10:26:16.916Z,1023.27
2018-09-26T10:27:16.868Z,1023.22
2018-09-26T10:28:16.853Z,1023.21
2018-09-26T10:29:16.843Z,1023.25
2018-09-26T10:30:16.946Z,1023.20
2018-09-26T10:31:16.907Z,1023.18
2018-09-26T10:32:16.982Z,1023.20
2018-09-26T10:33:16.791Z,1023.21
2018-09-26T10:34:16.860Z,1023.21
2018-09-26T10:35:16.914Z,1023.19
2018-09-26T10:36:16.923Z,1023.19
2018-09-26T10:37:16.796Z,1023.21
2018-09-26T10:38:16.904Z,1023.23
2018-09-26T10:39:16.865Z,1023.27
2018-09-26T10:40:16.841Z,1023.20
2018-09-26T10:41:16.836Z,1023.21
2018-09-26T10:42:16.853Z,1023.23
2018-09-26T10:43:16.930Z,1023.18
2018-09-26T10:44:16.846Z,1023.18
2018-09-26T10:45:16.871Z,1023.20
2018-09-26T10:46:16.915Z,1023.19
2018-09-26T10:47:16.914Z,1023.15
2018-09-26T10:48:16.857Z,1023.11
2018-09-26T10:49:16.923Z,1023.10
2018-09-26T10:50:16.847Z,1023.05
2018-09-26T10:51:16.849Z,1022.99
2018-09-26T10:52:16.901Z,1023.00
2018-09-26T10:53:16.943Z,1023.00
2018-09-26T10:54:16.874Z,1022.95
2018-09-26T10:55:16.863Z,1022.94
2018-09-26T10:56:16.910Z,1022.88
2018-09-26T10:57:16.836Z,1022.85
2018-09-26T10:58:16.771Z,1022.85
2018-09-26T10:59:16.773Z,1022.80
2018-09-26T11:00:16.868Z,1022.80
2018-09-26T11:01:16.865Z,1022.80
2018-09-26T11:02:16.909Z,1022.78
2018-09-26T11:03:16.786Z,1022.77
2018-09-26T11:04:16.818Z,1022.72
2018-09-26T11:05:16.775Z,1022.71
2018-09-26T11:06:16.861Z,1022.75
2018-09-26T11:07:16.811Z,1022.74
2018-09-26T11:08:16.907Z,1022.75
2018-09-26T11:09:16.942Z,1022.72
2018-09-26T11:10:17.002Z,1022.73
2018-09-26T11:11:16.913Z,1022.75
2018-09-26T11:12:16.956Z,1022.70
2018-09-26T11:13:16.954Z,1022.69
2018-09-26T11:14:16.954Z,1022.75
2018-09-26T11:15:17.064Z,1022.74
2018-09-26T11:16:16.867Z,1022.74
2018-09-26T11:17:16.896Z,1022.71
2018-09-26T11:18:16.902Z,1022.77
2018-09-26T11:19:16.962Z,1022.67
2018-09-26T11:20:16.922Z,1022.67
2018-09-26T11:21:16.894Z,1022.63
2018-09-26T11:22:16.939Z,1022.61
2018-09-26T11:23:16.829Z,1022.59
2018-09-26T11:24:16.883Z,1022.54
2018-09-26T11:25:16.941Z,1022.48
2018-09-26T11:26:16.918Z,1022.50
2018-09-26T11:27:16.928Z,1022.46
2018-09-26T11:28:16.914Z,1022.44
2018-09-26T11:29:16.866Z,1022.42
2018-09-26T11:30:16.863Z,1022.43
2018-09-26T11:31:16.866Z,1022.40
2018-09-26T11:32:16.940Z,1022.37
2018-09-26T11:33:17.014Z,1022.36
2018-09-26T11:34:16.916Z,1022.37
2018-09-26T11:35:16.869Z,1022.37
2018-09-26T11:36:16.935Z,1022.33
2018-09-26T11:37:16.937Z,1022.41
2018-09-26T11:38:17.004Z,1022.37
2018-09-26T11:39:16.996Z,1022.39
2018-09-26T11:40:16.927Z,1022.39
2018-09-26T11:41:16.911Z,1022.38
2018-09-26T11:42:16.872Z,1022.38
2018-09-26T11:43:16.973Z,1022.40
2018-09-26T11:44:16.890Z,1022.33
2018-09-26T11:45:16.940Z,1022.30
2018-09-26T11:46:16.968Z,1022.31
2018-09-26T11:47:16.901Z,1022.29
2018-09-26T11:48:16.946Z,1022.27
2018-09-26T11:49:16.879Z,1022.28
2018-09-26T11:50:16.922Z,1022.26
2018-09-26T11:51:16.886Z,1022.30
2018-09-26T11:52:16.959Z,1022.29
2018-09-26T11:53:16.883Z,1022.23
2018-09-26T11:54:16.878Z,1022.20
2018-09-26T11:55:16.953Z,1022.19
2018-09-26T11:56:16.900Z,1022.22
2018-09-26T11:57:16.880Z,1022.20
2018-09-26T11:58:17.027Z,1022.18
2018-09-26T11:59:16.892Z,1022.16
2018-09-26T12:00:16.974Z,1022.17
2018-09-26T12:01:16.974Z,1022.16
2018-09-26T12:02:16.971Z,1022.13
2018-09-26T12:03:16.970Z,1022.10
2018-09-26T12:04:16.987Z,1022.06
2018-09-26T12:05:16.981Z,1022.08